Time;durP1;ratioP1;P1;durP2;ratioP2;P2;SDS_P1;SDS_P2;PMS_P1;PMS_P2;Temp;Humidity;BMP_temperature;BMP_pressure;BME280_temperature;BME280_humidity;BME280_pressure;Samples;Min_cycle;Max_cycle;Signal;HPM_P1;HPM_P2
2022/04/17 00:00:50;;;;;;;;;;;;;;;6.44;47.26;100623.97;4864180;29;19932;-72
2022/04/17 00:03:21;;;;;;;;;;;;;;;6.43;47.48;100624.78;4864125;29;19967;-72
2022/04/17 00:05:51;;;;;;;;;;;;;;;6.45;47.62;100623.19;4864028;29;20055;-72
2022/04/17 00:08:19;;;;;;;;;;;;;;;6.44;47.49;100618.03;4863611;29;19928;-73
2022/04/17 00:10:48;;;;;;;;;;;;;;;6.40;47.49;100617.09;4863951;29;19924;-72
2022/04/17 00:13:17;;;;;;;;;;;;;;;6.42;47.35;100620.53;4863892;29;19924;-71
2022/04/17 00:15:46;;;;;;;;;;;;;;;6.38;47.70;100623.78;4864641;29;19962;-72
2022/04/17 00:18:16;;;;;;;;;;;;;;;6.32;47.65;100616.00;4863799;29;19931;-71
2022/04/17 00:20:45;;;;;;;;;;;;;;;6.29;47.76;100618.44;4863901;29;19988;-73
2022/04/17 00:23:13;;;;;;;;;;;;;;;6.31;47.90;100621.88;4863424;29;19923;-72
2022/04/17 00:25:42;;;;;;;;;;;;;;;6.30;47.61;100625.22;4863404;29;20287;-72
2022/04/17 00:28:11;;;;;;;;;;;;;;;6.25;48.36;100619.16;4862316;29;19924;-72
2022/04/17 00:30:40;;;;;;;;;;;;;;;6.23;48.08;100618.25;4863306;29;19935;-69
2022/04/17 00:33:08;;;;;;;;;;;;;;;6.22;48.11;100615.66;4862085;29;19957;-71
2022/04/17 00:35:44;;;;;;;;;;;;;;;6.19;48.33;100618.09;4863543;29;19957;-72
2022/04/17 00:38:14;;;;;;;;;;;;;;;6.21;47.99;100622.41;4832162;29;19928;-71
2022/04/17 00:40:42;;;;;;;;;;;;;;;6.25;48.31;100614.09;4863924;29;19924;-72
2022/04/17 00:43:19;;;;;;;;;;;;;;;6.28;47.68;100616.72;4863468;29;19924;-72
2022/04/17 00:45:47;;;;;;;;;;;;;;;6.27;48.24;100603.97;4863327;29;19924;-72
2022/04/17 00:48:16;;;;;;;;;;;;;;;6.27;47.99;100609.03;4863181;29;20386;-72
2022/04/17 00:50:47;;;;;;;;;;;;;;;6.24;48.05;100609.81;4861885;29;20390;-72
2022/04/17 00:53:15;;;;;;;;;;;;;;;6.24;48.48;100609.81;4863320;29;19924;-72
2022/04/17 00:55:45;;;;;;;;;;;;;;;6.21;48.48;100608.88;4862757;29;19924;-72
2022/04/17 00:58:14;;;;;;;;;;;;;;;6.16;48.67;100611.25;4862875;29;20438;-72
2022/04/17 01:00:43;;;;;;;;;;;;;;;6.15;48.70;100604.47;4863076;29;19924;-72
2022/04/17 01:03:12;;;;;;;;;;;;;;;6.16;48.57;100615.47;4863044;29;19924;-72
2022/04/17 01:05:43;;;;;;;;;;;;;;;6.18;48.74;100604.56;4862620;29;19924;-72
2022/04/17 01:08:13;;;;;;;;;;;;;;;6.16;48.73;100608.72;4862340;29;20329;-72
2022/04/17 01:10:42;;;;;;;;;;;;;;;6.14;48.71;100607.81;4862676;29;19930;-72
2022/04/17 01:13:10;;;;;;;;;;;;;;;6.17;48.55;100602.84;4862793;29;19976;-72
2022/04/17 01:15:39;;;;;;;;;;;;;;;6.18;48.47;100603.69;4862478;29;19976;-73
2022/04/17 01:18:08;;;;;;;;;;;;;;;6.19;48.24;100605.44;4861339;29;19924;-72
2022/04/17 01:20:38;;;;;;;;;;;;;;;6.19;48.93;100601.19;4862435;29;19930;-72
2022/04/17 01:28:25;;;;;;;;;;;;;;;6.09;49.03;100594.97;4861624;29;20374;-72
2022/04/17 01:30:54;;;;;;;;;;;;;;;6.04;48.90;100601.59;4862281;29;19972;-72
2022/04/17 01:33:23;;;;;;;;;;;;;;;6.01;49.27;100595.56;4862508;29;20449;-72
2022/04/17 01:35:51;;;;;;;;;;;;;;;6.00;49.14;100594.69;4862099;29;19924;-72
2022/04/17 01:38:21;;;;;;;;;;;;;;;6.07;48.74;100593.22;4862220;29;19972;-72
2022/04/17 01:40:50;;;;;;;;;;;;;;;6.08;49.25;100597.47;4862380;29;20013;-73
2022/04/17 01:43:19;;;;;;;;;;;;;;;6.09;48.99;100596.69;4862424;29;19963;-72
2022/04/17 01:45:47;;;;;;;;;;;;;;;6.04;49.27;100595.66;4861127;29;20284;-72
2022/04/17 01:48:16;;;;;;;;;;;;;;;5.88;49.77;100594.31;4861929;29;19976;-72
2022/04/17 01:50:45;;;;;;;;;;;;;;;5.77;50.23;100592.19;4862245;29;20018;-73
2022/04/17 01:53:13;;;;;;;;;;;;;;;5.75;50.35;100592.16;4861959;29;19931;-72
2022/04/17 01:55:43;;;;;;;;;;;;;;;5.73;50.59;100597.97;4862171;29;19931;-72
2022/04/17 01:58:12;;;;;;;;;;;;;;;5.70;50.25;100592.81;4861133;29;19988;-72
2022/04/17 02:00:41;;;;;;;;;;;;;;;5.74;50.36;100594.63;4861728;29;19932;-73
2022/04/17 02:03:10;;;;;;;;;;;;;;;5.79;50.63;100593.09;4845898;29;19924;-72
2022/04/17 02:05:38;;;;;;;;;;;;;;;5.86;50.30;100590.00;4861747;29;19980;-72
2022/04/17 02:08:07;;;;;;;;;;;;;;;5.88;50.44;100588.38;4861951;29;19924;-73
2022/04/17 02:10:36;;;;;;;;;;;;;;;5.93;50.26;100581.78;4862426;29;19972;-72
2022/04/17 02:13:06;;;;;;;;;;;;;;;5.93;50.59;100579.25;4861958;29;19972;-72
2022/04/17 02:15:35;;;;;;;;;;;;;;;5.94;50.39;100578.44;4861968;29;19963;-72
2022/04/17 02:18:03;;;;;;;;;;;;;;;5.96;50.31;100574.28;4861445;29;20379;-72
2022/04/17 02:20:32;;;;;;;;;;;;;;;5.98;50.74;100581.13;4861570;29;19924;-72
2022/04/17 02:23:01;;;;;;;;;;;;;;;6.01;50.45;100582.91;4861564;29;19928;-70
2022/04/17 02:25:29;;;;;;;;;;;;;;;6.02;50.26;100582.09;4861555;29;19924;-72
2022/04/17 02:27:58;;;;;;;;;;;;;;;6.07;50.46;100580.53;4861484;29;19924;-72
2022/04/17 02:30:28;;;;;;;;;;;;;;;6.06;50.51;100574.63;4861524;29;19940;-73
2022/04/17 02:32:57;;;;;;;;;;;;;;;6.02;50.94;100572.78;4861887;29;19924;-72
2022/04/17 02:35:25;;;;;;;;;;;;;;;5.96;51.19;100571.75;4861494;29;19926;-72
2022/04/17 02:37:54;;;;;;;;;;;;;;;5.86;51.36;100570.59;4861388;29;19930;-73
2022/04/17 02:40:23;;;;;;;;;;;;;;;5.77;51.58;100569.41;4862042;29;19951;-71
2022/04/17 02:42:53;;;;;;;;;;;;;;;5.58;52.28;100567.09;4861702;29;19934;-72
2022/04/17 02:45:21;;;;;;;;;;;;;;;5.53;52.37;100564.41;4861468;29;19927;-72
2022/04/17 02:47:51;;;;;;;;;;;;;;;5.50;52.52;100563.41;4861307;29;19955;-72
2022/04/17 02:50:22;;;;;;;;;;;;;;;5.42;52.47;100553.06;4861598;29;20286;-72
2022/04/17 02:52:54;;;;;;;;;;;;;;;5.46;52.49;100561.59;4862122;29;19955;-73
2022/04/17 02:55:23;;;;;;;;;;;;;;;5.50;53.05;100548.22;4861452;29;19924;-72
2022/04/17 02:57:51;;;;;;;;;;;;;;;5.56;52.72;100549.31;4861518;29;19935;-72
2022/04/17 03:00:21;;;;;;;;;;;;;;;5.56;52.93;100549.31;4861568;29;20399;-72
2022/04/17 03:08:09;;;;;;;;;;;;;;;5.59;52.85;100553.63;4861240;29;19931;-72
2022/04/17 03:10:38;;;;;;;;;;;;;;;5.60;52.96;100551.13;4861145;29;20290;-72
2022/04/17 03:13:08;;;;;;;;;;;;;;;5.62;52.81;100554.56;4861493;29;20271;-72
2022/04/17 03:15:38;;;;;;;;;;;;;;;5.63;52.92;100556.31;4861158;29;19924;-72
2022/04/17 03:18:08;;;;;;;;;;;;;;;5.61;53.20;100560.47;4861764;29;19924;-72
2022/04/17 03:20:37;;;;;;;;;;;;;;;5.60;53.32;100561.25;4861141;29;20014;-72
2022/04/17 03:23:06;;;;;;;;;;;;;;;5.59;53.25;100554.47;4861389;29;19923;-72
2022/04/17 03:25:34;;;;;;;;;;;;;;;5.58;53.31;100547.69;4861565;29;20298;-72
2022/04/17 03:28:03;;;;;;;;;;;;;;;5.58;53.48;100546.81;4861019;29;19924;-72
2022/04/17 03:30:32;;;;;;;;;;;;;;;5.53;53.98;100558.47;4862218;29;19934;-73
2022/04/17 03:33:01;;;;;;;;;;;;;;;5.51;53.93;100565.16;4864710;29;19924;-72
2022/04/17 03:35:32;;;;;;;;;;;;;;;5.48;53.81;100567.56;4864836;29;19924;-72
2022/04/17 03:38:02;;;;;;;;;;;;;;;5.45;54.20;100559.91;4864235;29;19924;-73
2022/04/17 03:40:31;;;;;;;;;;;;;;;5.41;54.21;100562.31;4832799;29;19969;-73
2022/04/17 03:42:59;;;;;;;;;;;;;;;5.41;54.04;100559.78;4862870;29;19931;-73
2022/04/17 03:45:28;;;;;;;;;;;;;;;5.45;54.20;100559.91;4864112;29;19980;-72
2022/04/17 03:47:57;;;;;;;;;;;;;;;5.48;54.46;100559.97;4862904;29;19924;-73
2022/04/17 03:50:26;;;;;;;;;;;;;;;5.46;54.23;100554.88;4863917;29;19939;-72
2022/04/17 03:52:56;;;;;;;;;;;;;;;5.51;54.40;100553.38;4863964;29;19957;-72
2022/04/17 03:55:25;;;;;;;;;;;;;;;5.51;53.95;100549.97;4864634;29;19927;-72
2022/04/17 03:57:54;;;;;;;;;;;;;;;5.48;54.45;100547.31;4863865;29;19930;-72
2022/04/17 04:00:23;;;;;;;;;;;;;;;5.53;54.33;100540.75;4864135;29;19931;-72
2022/04/17 04:02:52;;;;;;;;;;;;;;;5.53;54.09;100550.88;4863805;29;19974;-71
2022/04/17 04:05:20;;;;;;;;;;;;;;;5.55;54.34;100551.78;4864046;29;20367;-71
2022/04/17 04:07:49;;;;;;;;;;;;;;;5.59;54.11;100551.09;4863706;29;19924;-71
2022/04/17 04:10:19;;;;;;;;;;;;;;;5.65;54.02;100553.81;4863620;29;19924;-72
2022/04/17 04:12:48;;;;;;;;;;;;;;;5.62;54.30;100557.09;4863968;29;20014;-72
2022/04/17 04:15:16;;;;;;;;;;;;;;;5.67;54.11;100554.72;4863388;29;19946;-72
2022/04/17 04:17:45;;;;;;;;;;;;;;;5.75;54.00;100555.84;4863903;29;19936;-72
2022/04/17 04:20:14;;;;;;;;;;;;;;;5.87;53.73;100558.81;4862716;29;19931;-72
2022/04/17 04:22:42;;;;;;;;;;;;;;;6.00;54.00;100563.44;4862612;29;19928;-72
2022/04/17 04:25:11;;;;;;;;;;;;;;;6.08;53.67;100562.00;4863500;29;20379;-72
2022/04/17 04:30:19;;;;;;;;;;;;;;;6.12;53.61;100557.91;4864063;29;19967;-72
2022/04/17 04:32:53;;;;;;;;;;;;;;;6.04;53.85;100555.13;4862477;29;19924;-72
2022/04/17 04:35:22;;;;;;;;;;;;;;;5.99;53.71;100566.78;4863250;29;19931;-72
2022/04/17 04:37:50;;;;;;;;;;;;;;;6.03;53.81;100558.47;4863029;29;19924;-72
2022/04/17 04:40:19;;;;;;;;;;;;;;;6.02;53.57;100556.75;4863141;29;19924;-71
2022/04/17 04:42:49;;;;;;;;;;;;;;;6.03;53.80;100558.47;4863012;29;20298;-72
2022/04/17 04:47:56;;;;;;;;;;;;;;;6.12;53.55;100556.22;4861943;29;19928;-72
2022/04/17 04:50:24;;;;;;;;;;;;;;;6.16;53.82;100554.66;4863461;29;19928;-72
2022/04/17 04:52:53;;;;;;;;;;;;;;;6.18;54.11;100553.88;4862879;29;19935;-71
2022/04/17 04:55:21;;;;;;;;;;;;;;;6.22;53.69;100545.53;4861734;29;19924;-72
2022/04/17 04:57:51;;;;;;;;;;;;;;;6.30;53.47;100549.19;4861681;29;19930;-72
2022/04/17 05:00:20;;;;;;;;;;;;;;;6.42;53.32;100558.81;4863082;29;19923;-72
2022/04/17 05:02:49;;;;;;;;;;;;;;;6.48;53.21;100559.84;4863217;29;19959;-72
2022/04/17 05:05:17;;;;;;;;;;;;;;;6.53;52.66;100558.31;4863074;29;19924;-72
2022/04/17 05:07:46;;;;;;;;;;;;;;;6.60;52.17;100555.16;4863311;29;19924;-72
2022/04/17 05:10:14;;;;;;;;;;;;;;;6.73;52.34;100558.91;4861473;29;19924;-72
2022/04/17 05:12:44;;;;;;;;;;;;;;;6.82;52.45;100560.81;4861458;29;20018;-72
2022/04/17 05:15:13;;;;;;;;;;;;;;;6.83;52.64;100553.28;4861645;29;19931;-72
2022/04/17 05:17:42;;;;;;;;;;;;;;;6.88;52.37;100561.00;4862559;29;19924;-73
2022/04/17 05:20:11;;;;;;;;;;;;;;;6.97;51.99;100559.59;4862806;29;19967;-72
2022/04/17 05:22:39;;;;;;;;;;;;;;;7.10;52.30;100558.25;4862353;29;20018;-73
2022/04/17 05:25:14;;;;;;;;;;;;;;;7.21;51.67;100555.19;4862428;29;19924;-72
2022/04/17 05:27:43;;;;;;;;;;;;;;;7.27;51.70;100557.88;4862623;29;19924;-72
2022/04/17 05:30:13;;;;;;;;;;;;;;;7.34;51.18;100558.91;4862275;29;20011;-71
2022/04/17 05:32:41;;;;;;;;;;;;;;;7.47;51.17;100567.69;4863454;29;20299;-72
2022/04/17 05:35:10;;;;;;;;;;;;;;;7.54;50.66;100557.72;4862137;29;19978;-70
2022/04/17 05:37:39;;;;;;;;;;;;;;;7.69;50.51;100562.34;4862094;29;19932;-69
2022/04/17 05:40:09;;;;;;;;;;;;;;;7.80;50.14;100559.22;4861991;29;19967;-70
2022/04/17 05:42:38;;;;;;;;;;;;;;;7.92;49.89;100566.28;4862369;29;19946;-71
2022/04/17 05:45:07;;;;;;;;;;;;;;;8.03;49.81;100565.75;4862241;29;19924;-70
2022/04/17 05:47:37;;;;;;;;;;;;;;;8.15;48.38;100559.22;4861918;29;19924;-70
2022/04/17 05:50:07;;;;;;;;;;;;;;;8.30;49.12;100565.53;4862085;29;19976;-71
2022/04/17 05:52:35;;;;;;;;;;;;;;;8.44;48.18;100568.41;4861500;29;19924;-71
2022/04/17 05:55:04;;;;;;;;;;;;;;;8.57;48.59;100562.72;4860926;29;19924;-70
2022/04/17 05:57:33;;;;;;;;;;;;;;;8.72;47.99;100571.56;4861860;29;19935;-70
2022/04/17 06:00:01;;;;;;;;;;;;;;;8.80;47.58;100566.63;4861714;29;19931;-69
2022/04/17 06:02:43;;;;;;;;;;;;;;;8.88;47.21;100566.78;4862220;29;19992;-68
2022/04/17 06:05:12;;;;;;;;;;;;;;;8.90;46.35;100565.97;4861788;29;19931;-71
2022/04/17 06:07:41;;;;;;;;;;;;;;;8.99;45.11;100566.19;4861992;29;19931;-70
2022/04/17 06:10:10;;;;;;;;;;;;;;;9.13;45.64;100564.75;4861999;29;19988;-69
2022/04/17 06:12:39;;;;;;;;;;;;;;;9.14;44.50;100571.53;4861587;29;19931;-71
2022/04/17 06:15:08;;;;;;;;;;;;;;;9.21;44.17;100563.19;4861673;29;20295;-71
2022/04/17 06:17:38;;;;;;;;;;;;;;;9.20;42.96;100566.59;4861544;29;19924;-70
2022/04/17 06:20:09;;;;;;;;;;;;;;;9.23;43.75;100560.69;4861639;29;19924;-70
2022/04/17 06:22:38;;;;;;;;;;;;;;;9.21;43.15;100560.63;4861880;29;19930;-71
2022/04/17 06:25:08;;;;;;;;;;;;;;;9.29;43.41;100561.66;4861594;29;19924;-72
2022/04/17 06:27:37;;;;;;;;;;;;;;;9.39;43.29;100571.19;4861812;29;20309;-71
2022/04/17 06:30:09;;;;;;;;;;;;;;;9.44;42.47;100564.50;4861776;29;20322;-71
2022/04/17 06:32:38;;;;;;;;;;;;;;;9.42;41.27;100568.72;4860302;29;19924;-69
2022/04/17 06:35:09;;;;;;;;;;;;;;;9.41;41.88;100566.09;4861901;29;20279;-70
2022/04/17 06:37:55;;;;;;;;;;;;;;;9.57;42.39;100560.47;4861432;29;19930;-70
2022/04/17 06:40:24;;;;;;;;;;;;;;;9.55;41.16;100558.72;4861329;29;20290;-71
2022/04/17 06:42:54;;;;;;;;;;;;;;;9.59;40.56;100561.34;4861320;29;19931;-70
2022/04/17 06:45:23;;;;;;;;;;;;;;;9.71;40.62;100566.66;4861469;29;20011;-71
2022/04/17 06:47:53;;;;;;;;;;;;;;;9.73;39.95;100559.03;4861289;29;20010;-70
2022/04/17 06:50:24;;;;;;;;;;;;;;;9.86;40.73;100561.78;4861428;29;19973;-69
2022/04/17 06:52:53;;;;;;;;;;;;;;;9.88;39.81;100559.28;4861360;29;19940;-71
2022/04/17 06:55:22;;;;;;;;;;;;;;;9.89;39.36;100561.84;4861341;29;19966;-70
2022/04/17 06:57:51;;;;;;;;;;;;;;;10.01;39.46;100558.63;4861197;29;19931;-71
2022/04/17 07:00:22;;;;;;;;;;;;;;;10.17;39.50;100557.22;4861198;29;19924;-70
2022/04/17 07:02:51;;;;;;;;;;;;;;;10.15;38.63;100551.25;4861330;29;20007;-70
2022/04/17 07:05:19;;;;;;;;;;;;;;;10.01;38.31;100556.09;4861293;29;19937;-70
2022/04/17 07:07:57;;;;;;;;;;;;;;;10.15;39.30;100558.91;4864770;29;20031;-71
2022/04/17 07:10:26;;;;;;;;;;;;;;;10.23;38.90;100568.38;4864797;29;20363;-71
2022/04/17 07:12:54;;;;;;;;;;;;;;;10.00;37.34;100554.38;4865277;29;20419;-71
2022/04/17 07:15:24;;;;;;;;;;;;;;;10.09;38.01;100557.06;4864947;29;19930;-70
2022/04/17 07:17:53;;;;;;;;;;;;;;;10.13;37.81;100555.44;4833280;29;20367;-70
2022/04/17 07:20:22;;;;;;;;;;;;;;;10.15;37.94;100549.53;4864879;29;19924;-70
2022/04/17 07:22:53;;;;;;;;;;;;;;;10.19;37.38;100546.22;4864455;29;19947;-71
2022/04/17 07:25:22;;;;;;;;;;;;;;;10.39;38.16;100554.16;4864835;29;20418;-70
2022/04/17 07:27:51;;;;;;;;;;;;;;;10.50;38.42;100548.34;4864471;29;19928;-70
2022/04/17 07:30:20;;;;;;;;;;;;;;;10.53;35.97;100553.47;4864605;29;20303;-70
2022/04/17 07:32:50;;;;;;;;;;;;;;;10.60;35.65;100550.19;4864307;29;19947;-70
2022/04/17 07:35:19;;;;;;;;;;;;;;;10.82;36.05;100543.66;4864318;29;19940;-70
2022/04/17 07:37:49;;;;;;;;;;;;;;;10.96;34.86;100549.78;4864008;29;19924;-70
2022/04/17 07:40:21;;;;;;;;;;;;;;;10.98;35.07;100547.25;4864297;29;19924;-71
2022/04/17 07:42:51;;;;;;;;;;;;;;;10.98;35.89;100547.25;4864241;29;19976;-72
2022/04/17 07:45:20;;;;;;;;;;;;;;;10.99;36.15;100549.78;4864098;29;20010;-72
2022/04/17 07:47:49;;;;;;;;;;;;;;;10.84;36.29;100544.53;4864099;29;19924;-70
2022/04/17 07:50:18;;;;;;;;;;;;;;;10.82;36.40;100535.13;4862949;29;19924;-70
2022/04/17 07:52:47;;;;;;;;;;;;;;;10.96;36.78;100539.56;4862719;29;20418;-72
2022/04/17 07:55:16;;;;;;;;;;;;;;;11.07;36.18;100542.22;4863982;29;19924;-71
2022/04/17 08:00:27;;;;;;;;;;;;;;;10.94;34.95;100540.38;4864240;29;19928;-72
2022/04/17 08:03:20;;;;;;;;;;;;;;;11.02;34.72;100542.19;4863120;29;19924;-69
2022/04/17 08:05:50;;;;;;;;;;;;;;;11.03;34.47;100540.50;4864213;29;19924;-70
2022/04/17 08:08:19;;;;;;;;;;;;;;;11.23;35.63;100533.88;4864077;29;19924;-70
2022/04/17 08:10:48;;;;;;;;;;;;;;;11.23;34.33;100533.88;4863705;29;20019;-69
2022/04/17 08:13:18;;;;;;;;;;;;;;;11.33;34.64;100540.81;4863929;29;19923;-70
2022/04/17 08:15:46;;;;;;;;;;;;;;;11.47;33.90;100538.41;4863493;29;19976;-69
2022/04/17 08:18:15;;;;;;;;;;;;;;;11.60;33.91;100533.41;4863433;29;20015;-70
2022/04/17 08:20:45;;;;;;;;;;;;;;;11.44;33.66;100529.00;4863518;29;19924;-70
2022/04/17 08:23:16;;;;;;;;;;;;;;;11.29;33.77;100528.84;4863514;29;19928;-68
2022/04/17 08:25:46;;;;;;;;;;;;;;;11.38;33.66;100526.38;4863864;29;19928;-69
2022/04/17 08:28:15;;;;;;;;;;;;;;;11.61;33.66;100526.59;4863593;29;19928;-69
2022/04/17 08:30:45;;;;;;;;;;;;;;;11.60;33.31;100527.41;4863323;29;19959;-69
2022/04/17 08:33:14;;;;;;;;;;;;;;;11.66;33.35;100525.75;4863798;29;19923;-68
2022/04/17 08:35:43;;;;;;;;;;;;;;;11.92;34.06;100514.09;4863204;29;19967;-70
2022/04/17 08:38:11;;;;;;;;;;;;;;;12.00;33.09;100511.56;4863112;29;20022;-70
2022/04/17 08:40:40;;;;;;;;;;;;;;;11.84;32.92;100500.38;4863361;29;20022;-70
2022/04/17 08:43:09;;;;;;;;;;;;;;;12.05;32.78;100500.53;4863115;29;19924;-72
2022/04/17 08:45:38;;;;;;;;;;;;;;;12.08;32.68;100505.66;4863310;29;19971;-72
2022/04/17 08:48:08;;;;;;;;;;;;;;;12.06;32.74;100486.03;4862994;29;19928;-72
2022/04/17 08:50:41;;;;;;;;;;;;;;;12.15;32.68;100496.31;4863084;29;19924;-72
2022/04/17 08:53:10;;;;;;;;;;;;;;;12.29;32.97;100488.72;4862983;29;19924;-71
2022/04/17 08:55:39;;;;;;;;;;;;;;;12.32;32.63;100473.38;4862506;29;20282;-70
2022/04/17 08:58:08;;;;;;;;;;;;;;;12.43;32.54;100485.38;4863078;29;20336;-70
2022/04/17 09:00:36;;;;;;;;;;;;;;;12.54;32.42;100482.88;4862684;29;19924;-70
2022/04/17 09:03:07;;;;;;;;;;;;;;;12.71;31.96;100481.22;4863041;29;19935;-70
2022/04/17 09:05:38;;;;;;;;;;;;;;;12.75;31.83;100475.25;4862879;29;19931;-71
2022/04/17 09:08:14;;;;;;;;;;;;;;;12.94;31.85;100469.34;4862893;29;20018;-70
2022/04/17 09:10:53;;;;;;;;;;;;;;;13.37;33.30;100471.16;4862557;29;19977;-70
2022/04/17 09:13:29;;;;;;;;;;;;;;;13.52;32.89;100457.47;4862762;29;20038;-70
2022/04/17 09:15:58;;;;;;;;;;;;;;;13.51;31.09;100460.88;4862612;29;19971;-70
2022/04/17 09:18:31;;;;;;;;;;;;;;;13.53;32.03;100458.34;4862770;29;19983;-70
2022/04/17 09:21:02;;;;;;;;;;;;;;;13.42;31.10;100450.63;4845987;29;20027;-71
2022/04/17 09:23:37;;;;;;;;;;;;;;;13.32;31.55;100454.03;4862679;29;19924;-69
2022/04/17 09:26:06;;;;;;;;;;;;;;;13.44;33.20;100449.78;4862659;29;19924;-69
2022/04/17 09:28:35;;;;;;;;;;;;;;;13.54;33.11;100448.06;4861788;29;19924;-69
2022/04/17 09:31:10;;;;;;;;;;;;;;;13.60;31.19;100434.38;4862099;29;19947;-70
2022/04/17 09:33:39;;;;;;;;;;;;;;;13.67;31.09;100430.97;4862320;29;20435;-70
2022/04/17 09:36:10;;;;;;;;;;;;;;;13.71;31.47;100420.69;4862338;29;19924;-72
2022/04/17 09:38:42;;;;;;;;;;;;;;;13.65;30.42;100414.72;4862087;29;19976;-70
2022/04/17 09:41:13;;;;;;;;;;;;;;;13.90;30.72;100413.81;4846091;29;19931;-70
2022/04/17 09:43:43;;;;;;;;;;;;;;;13.77;30.07;100412.97;4862169;29;19931;-71
2022/04/17 09:46:13;;;;;;;;;;;;;;;13.74;29.32;100409.56;4862121;29;19924;-71
2022/04/17 09:48:43;;;;;;;;;;;;;;;13.64;29.68;100406.16;4862469;29;19947;-70
2022/04/17 09:51:22;;;;;;;;;;;;;;;13.73;29.32;100411.28;4845883;29;19928;-71
2022/04/17 09:53:59;;;;;;;;;;;;;;;13.60;29.09;100404.47;4845508;29;19946;-70
2022/04/17 09:56:32;;;;;;;;;;;;;;;13.25;29.05;100409.59;4861882;29;19924;-68
2022/04/17 09:59:01;;;;;;;;;;;;;;;13.34;29.29;100404.47;4862122;29;19928;-69
2022/04/17 10:01:30;;;;;;;;;;;;;;;13.44;29.07;100403.63;4861880;29;19928;-69
2022/04/17 10:04:00;;;;;;;;;;;;;;;13.55;29.02;100400.19;4845407;29;19924;-69
2022/04/17 10:06:28;;;;;;;;;;;;;;;13.49;29.33;100395.06;4861814;29;19952;-69
2022/04/17 10:08:58;;;;;;;;;;;;;;;13.63;29.78;100383.09;4862044;29;19960;-69
2022/04/17 10:11:29;;;;;;;;;;;;;;;13.58;29.51;100384.81;4861547;29;19928;-71
2022/04/17 10:13:58;;;;;;;;;;;;;;;13.59;29.33;100376.25;4861905;29;19924;-71
2022/04/17 10:16:27;;;;;;;;;;;;;;;13.67;29.63;100384.78;4861973;29;20432;-72
2022/04/17 10:18:56;;;;;;;;;;;;;;;13.75;29.48;100380.50;4861865;29;20024;-71
2022/04/17 10:21:28;;;;;;;;;;;;;;;13.63;29.54;100377.97;4861967;29;19924;-71
2022/04/17 10:24:00;;;;;;;;;;;;;;;13.78;29.75;100365.06;4861906;29;20294;-71
2022/04/17 10:26:32;;;;;;;;;;;;;;;14.06;30.54;100358.97;4861608;29;19924;-71
2022/04/17 10:29:06;;;;;;;;;;;;;;;13.86;29.79;100361.66;4861534;29;19931;-72
2022/04/17 10:31:39;;;;;;;;;;;;;;;13.66;29.91;100352.28;4861502;29;19924;-71
2022/04/17 10:34:19;;;;;;;;;;;;;;;13.58;30.17;100348.91;4845020;29;19924;-72
2022/04/17 10:36:58;;;;;;;;;;;;;;;13.99;31.15;100347.03;4844733;29;20438;-72
2022/04/17 10:39:30;;;;;;;;;;;;;;;14.12;29.69;100343.56;4863075;29;20382;-73
2022/04/17 10:42:07;;;;;;;;;;;;;;;14.47;30.50;100336.56;4865273;29;19924;-71
2022/04/17 10:44:41;;;;;;;;;;;;;;;14.77;30.28;100336.38;4865224;29;19928;-72
2022/04/17 10:47:17;;;;;;;;;;;;;;;14.92;30.77;100340.56;4848888;29;19924;-72
2022/04/17 10:49:52;;;;;;;;;;;;;;;15.15;29.77;100337.78;4865137;29;19935;-71
2022/04/17 10:52:28;;;;;;;;;;;;;;;15.21;28.94;100324.88;4849013;29;19924;-71
2022/04/17 10:55:08;;;;;;;;;;;;;;;15.03;28.27;100325.03;4864932;29;20018;-70
2022/04/17 10:57:45;;;;;;;;;;;;;;;14.75;28.29;100332.97;4864943;29;19974;-72
2022/04/17 11:00:24;;;;;;;;;;;;;;;14.45;28.64;100322.88;4865227;29;19931;-70
2022/04/17 11:03:13;;;;;;;;;;;;;;;14.20;28.55;100326.44;4848983;29;20019;-70
2022/04/17 11:08:21;;;;;;;;;;;;;;;14.21;28.93;100317.84;4864763;29;19931;-72
2022/04/17 11:10:52;;;;;;;;;;;;;;;14.53;29.22;100316.00;4864724;29;19924;-71
2022/04/17 11:13:26;;;;;;;;;;;;;;;14.49;28.67;100319.41;4864671;29;19924;-70
2022/04/17 11:15:55;;;;;;;;;;;;;;;14.94;29.84;100312.25;4864695;29;20014;-70
2022/04/17 11:18:25;;;;;;;;;;;;;;;15.01;29.48;100304.47;4848471;29;20319;-72
2022/04/17 11:20:54;;;;;;;;;;;;;;;15.03;30.81;100296.75;4864564;29;20371;-72
2022/04/17 11:23:34;;;;;;;;;;;;;;;15.00;29.37;100301.91;4864631;29;20402;-73
2022/04/17 11:26:02;;;;;;;;;;;;;;;14.81;29.37;100301.22;4864746;29;20374;-71
2022/04/17 11:28:36;;;;;;;;;;;;;;;14.65;29.57;100300.50;4864454;29;19924;-72
2022/04/17 11:31:05;;;;;;;;;;;;;;;14.64;29.19;100293.63;4864762;29;19924;-70
2022/04/17 11:33:33;;;;;;;;;;;;;;;14.59;29.59;100297.94;4864368;29;19972;-71
2022/04/17 11:36:02;;;;;;;;;;;;;;;14.68;28.84;100294.47;4863130;29;19949;-72
2022/04/17 11:38:31;;;;;;;;;;;;;;;14.76;29.17;100298.69;4863859;29;19931;-71
2022/04/17 11:41:07;;;;;;;;;;;;;;;15.14;29.51;100290.63;4864079;29;19924;-71
2022/04/17 11:43:37;;;;;;;;;;;;;;;15.59;31.19;100278.22;4864112;29;19924;-71
2022/04/17 11:46:06;;;;;;;;;;;;;;;15.81;29.48;100277.09;4863877;29;19930;-72
2022/04/17 11:48:41;;;;;;;;;;;;;;;16.09;30.89;100279.28;4864073;29;20283;-73
2022/04/17 11:51:19;;;;;;;;;;;;;;;16.05;29.99;100264.72;4847002;29;20811;-71
2022/04/17 11:53:48;;;;;;;;;;;;;;;15.47;28.26;100262.91;4846185;29;20428;-72
2022/04/17 11:56:17;;;;;;;;;;;;;;;14.84;27.57;100274.63;4847459;29;19985;-72
2022/04/17 11:58:48;;;;;;;;;;;;;;;14.67;27.69;100270.50;4864067;29;19932;-72
2022/04/17 12:01:23;;;;;;;;;;;;;;;14.66;28.31;100261.06;4847369;29;19928;-72
2022/04/17 12:03:55;;;;;;;;;;;;;;;14.82;28.51;100250.66;4863728;29;20445;-71
2022/04/17 12:06:28;;;;;;;;;;;;;;;14.97;29.19;100255.69;4863669;29;19924;-71
2022/04/17 12:08:57;;;;;;;;;;;;;;;15.21;29.34;100247.72;4863650;29;19932;-70
2022/04/17 12:11:26;;;;;;;;;;;;;;;15.38;30.05;100248.38;4864074;29;19924;-71
2022/04/17 12:13:56;;;;;;;;;;;;;;;15.44;29.57;100245.75;4863422;29;19923;-71
2022/04/17 12:16:25;;;;;;;;;;;;;;;15.40;28.75;100251.81;4863625;29;19931;-71
2022/04/17 12:18:56;;;;;;;;;;;;;;;15.02;27.77;100253.94;4847147;29;19924;-71
2022/04/17 12:21:28;;;;;;;;;;;;;;;14.61;27.63;100257.69;4847021;29;20032;-71
2022/04/17 12:23:56;;;;;;;;;;;;;;;14.31;27.74;100246.78;4863365;29;19980;-71
2022/04/17 12:26:25;;;;;;;;;;;;;;;14.58;28.25;100246.59;4863493;29;19967;-72
2022/04/17 12:28:54;;;;;;;;;;;;;;;15.02;28.22;100238.50;4846667;29;19924;-72
2022/04/17 12:31:24;;;;;;;;;;;;;;;15.38;28.66;100228.66;4863637;29;20015;-72
2022/04/17 12:34:05;;;;;;;;;;;;;;;15.63;27.58;100231.84;4863266;29;19924;-72
2022/04/17 12:36:37;;;;;;;;;;;;;;;15.70;27.50;100230.88;4863201;29;19924;-71
2022/04/17 12:39:07;;;;;;;;;;;;;;;15.64;27.57;100227.53;4840501;29;19925;-71
2022/04/17 12:41:41;;;;;;;;;;;;;;;15.26;27.23;100217.69;4826508;29;19977;-72
2022/04/17 12:44:10;;;;;;;;;;;;;;;15.50;28.22;100217.41;4826366;29;19924;-71
2022/04/17 12:46:43;;;;;;;;;;;;;;;15.54;27.78;100213.94;4826298;29;20333;-70
2022/04/17 12:49:12;;;;;;;;;;;;;;;15.52;27.78;100218.25;4826571;29;20295;-71
2022/04/17 12:51:53;;;;;;;;;;;;;;;15.54;28.27;100208.78;4826074;29;19956;-71
2022/04/17 12:54:21;;;;;;;;;;;;;;;15.53;27.93;100204.50;4826434;29;20000;-71
2022/04/17 12:57:01;;;;;;;;;;;;;;;15.65;27.86;100196.63;4826431;29;19924;-71
2022/04/17 12:59:39;;;;;;;;;;;;;;;15.85;28.58;100204.09;4826234;29;19929;-70
2022/04/17 13:02:16;;;;;;;;;;;;;;;15.66;27.17;100203.50;4826548;29;19936;-71
2022/04/17 13:04:46;;;;;;;;;;;;;;;15.27;26.34;100183.34;4824929;29;19925;-71
2022/04/17 13:07:15;;;;;;;;;;;;;;;15.15;26.72;100189.50;4826023;29;19924;-71
2022/04/17 13:09:51;;;;;;;;;;;;;;;15.44;28.03;100186.59;4825908;29;20015;-71
2022/04/17 13:12:41;;;;;;;;;;;;;;;15.78;28.21;100187.88;4826002;29;19924;-73
2022/04/17 13:15:11;;;;;;;;;;;;;;;15.65;27.40;100190.63;4822343;29;19924;-71
2022/04/17 13:17:48;;;;;;;;;;;;;;;15.26;27.04;100176.53;4826092;29;19931;-71
2022/04/17 13:20:17;;;;;;;;;;;;;;;15.24;27.08;100173.09;4826170;29;19946;-71